Time;durP1;ratioP1;P1;durP2;ratioP2;P2;SDS_P1;SDS_P2;PMS_P1;PMS_P2;Temp;Humidity;BMP_temperature;BMP_pressure;BME280_temperature;BME280_humidity;BME280_pressure;Samples;Min_cycle;Max_cycle;Signal;HPM_P1;HPM_P2
2021/12/05 00:22:45;;;;;;;0.00;0.00;;;2.70;71.20;;;;;;4958223;29;20094;-76
2021/12/05 00:25:15;;;;;;;0.00;0.00;;;2.70;71.30;;;;;;4958326;29;20028;-75
2021/12/05 00:27:48;;;;;;;0.00;0.00;;;2.80;71.30;;;;;;4957496;29;20122;-76
2021/12/05 00:39:06;;;;;;;0.00;0.00;;;3.00;70.80;;;;;;4957800;29;20043;-76
2021/12/05 01:02:33;;;;;;;0.00;0.00;;;2.80;71.50;;;;;;4957992;29;20344;-76
2021/12/05 01:15:28;;;;;;;0.00;0.00;;;3.20;71.40;;;;;;4957915;29;20078;-75
2021/12/05 01:20:24;;;;;;;0.10;0.10;;;3.30;70.80;;;;;;4957663;29;20039;-76
2021/12/05 01:23:08;;;;;;;0.00;0.00;;;3.30;70.70;;;;;;4957572;29;20034;-76
2021/12/05 01:25:58;;;;;;;0.00;0.00;;;3.30;70.40;;;;;;4957204;29;20027;-77
2021/12/05 01:50:42;;;;;;;0.00;0.00;;;3.20;70.40;;;;;;4956212;28;20038;-74
2021/12/05 01:53:13;;;;;;;0.00;0.00;;;3.20;70.40;;;;;;4956146;29;20122;-75
2021/12/05 02:42:07;;;;;;;0.10;0.10;;;3.10;70.50;;;;;;4955900;28;20481;-76
2021/12/05 02:44:34;;;;;;;0.10;0.10;;;3.10;70.30;;;;;;4954704;29;20127;-76
2021/12/05 02:47:07;;;;;;;0.10;0.10;;;3.10;70.50;;;;;;4955796;28;20027;-75
2021/12/05 02:49:37;;;;;;;0.00;0.00;;;3.00;70.50;;;;;;4955557;28;20031;-75
2021/12/05 02:52:09;;;;;;;0.00;0.00;;;3.00;70.60;;;;;;4956038;28;20045;-76
2021/12/05 02:54:44;;;;;;;0.00;0.00;;;2.90;71.50;;;;;;4954245;29;20389;-76
2021/12/05 02:57:12;;;;;;;0.00;0.00;;;2.90;71.40;;;;;;4954763;29;20393;-75
2021/12/05 03:02:11;;;;;;;0.00;0.00;;;2.80;71.20;;;;;;4955825;29;20074;-75
2021/12/05 03:04:41;;;;;;;0.00;0.00;;;2.70;71.20;;;;;;4955516;28;20034;-75
2021/12/05 03:07:09;;;;;;;0.00;0.00;;;2.60;71.60;;;;;;4954139;29;20034;-76
2021/12/05 03:09:36;;;;;;;0.00;0.00;;;2.60;71.90;;;;;;4955544;28;20049;-76
2021/12/05 03:12:03;;;;;;;0.00;0.00;;;2.60;72.10;;;;;;4954257;29;20035;-75
2021/12/05 03:14:29;;;;;;;0.03;0.03;;;2.60;72.30;;;;;;4955284;28;20027;-76
2021/12/05 03:16:55;;;;;;;0.00;0.00;;;2.70;72.20;;;;;;4955383;28;20030;-75
2021/12/05 03:19:21;;;;;;;0.00;0.00;;;2.70;72.00;;;;;;4955614;28;20095;-75
2021/12/05 03:21:50;;;;;;;0.00;0.00;;;2.70;71.60;;;;;;4955324;28;20425;-77
2021/12/05 03:24:18;;;;;;;0.10;0.10;;;2.70;71.70;;;;;;4955262;28;20465;-76
2021/12/05 03:26:47;;;;;;;0.00;0.00;;;2.70;71.70;;;;;;4955113;28;20046;-75
2021/12/05 03:29:16;;;;;;;0.10;0.10;;;2.60;71.70;;;;;;4953617;29;20050;-74
2021/12/05 03:31:42;;;;;;;0.00;0.00;;;2.60;71.90;;;;;;4955312;29;20062;-75
2021/12/05 03:34:11;;;;;;;0.00;0.00;;;2.60;72.20;;;;;;4955454;28;20491;-75
2021/12/05 03:36:40;;;;;;;0.00;0.00;;;2.60;72.50;;;;;;4953929;29;20488;-76
2021/12/05 03:39:08;;;;;;;0.00;0.00;;;2.70;72.70;;;;;;4955502;28;20108;-76
2021/12/05 03:41:34;;;;;;;0.00;0.00;;;2.80;72.80;;;;;;4955274;29;20038;-77
2021/12/05 03:44:05;;;;;;;0.00;0.00;;;2.90;72.90;;;;;;4955535;28;20027;-76
2021/12/05 03:46:31;;;;;;;0.00;0.00;;;3.00;72.60;;;;;;4955030;28;20111;-76
2021/12/05 03:49:00;;;;;;;0.00;0.00;;;3.20;72.30;;;;;;4955341;28;20034;-75
2021/12/05 03:51:31;;;;;;;0.00;0.00;;;3.30;72.10;;;;;;4956518;28;20100;-76
2021/12/05 03:53:58;;;;;;;0.00;0.00;;;3.20;71.30;;;;;;4959092;28;20421;-75
2021/12/05 03:56:24;;;;;;;0.00;0.00;;;3.10;71.00;;;;;;4959141;28;20182;-75
2021/12/05 03:58:51;;;;;;;0.00;0.00;;;3.00;71.00;;;;;;4958541;28;20501;-76
2021/12/05 04:01:18;;;;;;;0.00;0.00;;;2.80;71.20;;;;;;4958554;28;20479;-76
2021/12/05 04:03:47;;;;;;;0.00;0.00;;;2.70;71.40;;;;;;4957318;29;20031;-78
2021/12/05 04:06:15;;;;;;;0.00;0.00;;;2.60;71.60;;;;;;4957489;29;20039;-75
2021/12/05 04:08:41;;;;;;;0.20;0.20;;;2.60;72.00;;;;;;4958761;28;20027;-76
2021/12/05 04:11:17;;;;;;;0.00;0.00;;;2.60;72.20;;;;;;4958478;28;20031;-75
2021/12/05 04:13:44;;;;;;;0.00;0.00;;;2.60;72.40;;;;;;4957984;28;20464;-75
2021/12/05 04:16:13;;;;;;;0.10;0.10;;;2.70;72.50;;;;;;4958288;28;20102;-74
2021/12/05 04:18:39;;;;;;;0.20;0.20;;;2.70;72.40;;;;;;4958054;28;20105;-75
2021/12/05 04:21:06;;;;;;;0.40;0.10;;;2.80;72.20;;;;;;4957970;28;20111;-75
2021/12/05 04:23:32;;;;;;;1.17;0.40;;;2.80;72.10;;;;;;4958578;28;20082;-76
2021/12/05 04:25:58;;;;;;;0.00;0.00;;;2.90;71.90;;;;;;4958247;28;20425;-75
2021/12/05 04:28:24;;;;;;;0.52;0.20;;;3.00;71.80;;;;;;4958555;28;20453;-76
2021/12/05 04:30:51;;;;;;;1.17;0.40;;;3.00;71.70;;;;;;4958025;28;20035;-75
2021/12/05 04:33:16;;;;;;;2.75;0.82;;;3.00;71.40;;;;;;4958003;28;20028;-75
2021/12/05 04:35:43;;;;;;;3.08;1.73;;;3.10;71.10;;;;;;4957813;28;20400;-75
2021/12/05 04:38:09;;;;;;;2.67;0.80;;;3.00;70.90;;;;;;4958062;28;20047;-76
2021/12/05 04:40:36;;;;;;;3.47;1.50;;;2.90;70.70;;;;;;4958037;29;20074;-75
2021/12/05 04:43:03;;;;;;;1.92;1.00;;;2.90;70.60;;;;;;4957911;28;20035;-77
2021/12/05 04:45:31;;;;;;;3.20;1.15;;;2.80;70.60;;;;;;4957948;28;20062;-80
2021/12/05 04:47:58;;;;;;;4.50;1.33;;;2.70;70.90;;;;;;4957770;28;20027;-76
2021/12/05 04:50:26;;;;;;;2.05;0.90;;;2.60;70.70;;;;;;4957842;28;20103;-75
2021/12/05 04:52:52;;;;;;;2.53;1.15;;;2.60;71.00;;;;;;4958148;28;20035;-75
2021/12/05 04:55:18;;;;;;;4.65;1.70;;;2.50;71.00;;;;;;4957817;28;20130;-76
2021/12/05 04:57:45;;;;;;;2.08;1.02;;;2.50;71.00;;;;;;4957599;28;20381;-77
2021/12/05 05:00:21;;;;;;;3.05;1.45;;;2.40;71.10;;;;;;4940322;29;20043;-77
2021/12/05 05:02:47;;;;;;;5.28;1.45;;;2.40;71.30;;;;;;4956444;28;20385;-76
2021/12/05 05:05:13;;;;;;;1.60;0.70;;;2.40;71.10;;;;;;4957166;28;20028;-76
2021/12/05 05:07:41;;;;;;;0.60;0.50;;;2.40;71.10;;;;;;4957697;28;20110;-77
2021/12/05 05:10:16;;;;;;;0.30;0.20;;;2.30;71.30;;;;;;4957591;28;20041;-76
2021/12/05 05:12:42;;;;;;;0.30;0.30;;;2.30;71.30;;;;;;4955967;29;20110;-75
2021/12/05 05:15:09;;;;;;;0.10;0.10;;;2.30;71.40;;;;;;4957201;28;20030;-76
2021/12/05 05:17:37;;;;;;;0.10;0.10;;;2.30;71.50;;;;;;4956032;29;20122;-77
2021/12/05 05:20:14;;;;;;;0.00;0.00;;;2.30;71.80;;;;;;4956167;29;20454;-76
2021/12/05 05:22:48;;;;;;;0.10;0.10;;;2.30;71.90;;;;;;4957789;28;20436;-75
2021/12/05 05:25:50;;;;;;;0.00;0.00;;;2.30;71.80;;;;;;4957202;28;20023;-76
2021/12/05 05:49:35;;;;;;;0.00;0.00;;;2.70;72.50;;;;;;4956661;29;20105;-75
2021/12/05 05:52:02;;;;;;;0.00;0.00;;;2.70;72.50;;;;;;4956994;28;20039;-76
2021/12/05 05:54:28;;;;;;;0.00;0.00;;;2.80;72.40;;;;;;4956658;28;20049;-76
2021/12/05 05:57:01;;;;;;;0.00;0.00;;;2.90;72.30;;;;;;4955964;28;20043;-77
2021/12/05 05:59:37;;;;;;;0.00;0.00;;;3.00;72.30;;;;;;4956301;28;20106;-75
2021/12/05 06:04:35;;;;;;;0.00;0.00;;;3.20;72.10;;;;;;4956350;28;20038;-75
2021/12/05 06:07:01;;;;;;;0.00;0.00;;;3.20;72.20;;;;;;4955504;29;20031;-76
2021/12/05 06:09:27;;;;;;;0.00;0.00;;;3.30;71.20;;;;;;4955520;29;20031;-76
2021/12/05 06:11:52;;;;;;;0.00;0.00;;;3.20;71.10;;;;;;4956440;29;20043;-76
2021/12/05 06:14:19;;;;;;;0.00;0.00;;;3.10;70.80;;;;;;4954309;28;20035;-77
2021/12/05 06:16:45;;;;;;;0.00;0.00;;;3.00;70.80;;;;;;4954887;29;20037;-77
2021/12/05 06:19:13;;;;;;;0.00;0.00;;;3.00;71.00;;;;;;4956341;29;20109;-77
2021/12/05 06:21:39;;;;;;;0.00;0.00;;;3.00;70.70;;;;;;4956177;29;20038;-78
2021/12/05 06:24:05;;;;;;;0.00;0.00;;;3.00;70.70;;;;;;4956078;29;20469;-79
2021/12/05 06:26:34;;;;;;;0.00;0.00;;;3.00;70.80;;;;;;4955164;29;20086;-77
2021/12/05 06:47:12;;;;;;;0.00;0.00;;;2.80;70.30;;;;;;4955851;29;20082;-77
2021/12/05 06:49:39;;;;;;;0.00;0.00;;;2.70;70.60;;;;;;4955337;28;20062;-78
2021/12/05 06:52:07;;;;;;;0.00;0.00;;;2.70;70.20;;;;;;4955627;29;20082;-75
2021/12/05 06:54:33;;;;;;;0.00;0.00;;;2.70;70.30;;;;;;4955601;29;20120;-76
2021/12/05 06:56:59;;;;;;;0.00;0.00;;;2.60;70.40;;;;;;4954240;29;20087;-77
2021/12/05 06:59:26;;;;;;;0.00;0.00;;;2.60;70.80;;;;;;4955523;29;20409;-77
2021/12/05 07:01:52;;;;;;;0.10;0.00;;;2.70;70.90;;;;;;4955241;29;20397;-77
2021/12/05 07:04:44;;;;;;;0.00;0.00;;;2.80;70.40;;;;;;4955539;29;20111;-76
2021/12/05 07:07:04;;;;;;;0.08;0.08;;;2.80;70.30;;;;;;4955306;29;20446;-77
2021/12/05 07:09:30;;;;;;;1.58;0.40;;;2.70;70.10;;;;;;4954154;29;20031;-76
2021/12/05 07:14:49;;;;;;;0.70;0.70;;;2.70;70.20;;;;;;4955188;29;20038;-76
2021/12/05 07:22:41;;;;;;;2.50;0.68;;;2.60;70.10;;;;;;4955505;29;19913;-76
2021/12/05 07:25:26;;;;;;;1.05;0.73;;;2.40;69.60;;;;;;4956063;28;20520;-76
2021/12/05 07:41:53;;;;;;;0.98;0.45;;;2.50;71.10;;;;;;4956384;29;20079;-79
2021/12/05 07:44:21;;;;;;;0.00;0.00;;;2.50;70.80;;;;;;4958151;28;20022;-77
2021/12/05 07:46:47;;;;;;;0.25;0.25;;;2.60;71.00;;;;;;4956865;29;20062;-78
2021/12/05 07:49:17;;;;;;;0.25;0.08;;;2.60;70.80;;;;;;4956949;29;20023;-78
2021/12/05 07:51:48;;;;;;;0.00;0.00;;;2.60;70.90;;;;;;4955137;29;20031;-79
2021/12/05 07:56:59;;;;;;;0.00;0.00;;;2.60;70.80;;;;;;4955477;29;20051;-77
2021/12/05 08:16:09;;;;;;;0.00;0.00;;;3.10;70.40;;;;;;4955929;29;20074;-77
2021/12/05 08:18:35;;;;;;;0.10;0.10;;;3.10;69.80;;;;;;4954960;29;20393;-76
2021/12/05 08:21:03;;;;;;;0.10;0.10;;;3.00;69.50;;;;;;4954331;29;20027;-77
2021/12/05 08:23:29;;;;;;;0.00;0.00;;;2.90;69.80;;;;;;4956663;28;20024;-76
2021/12/05 08:26:04;;;;;;;0.00;0.00;;;2.90;70.30;;;;;;4956472;29;20023;-76
2021/12/05 10:01:25;;;;;;;0.10;0.10;;;2.80;68.00;;;;;;4956276;29;20062;-77
2021/12/05 10:13:06;;;;;;;0.03;0.03;;;3.10;67.60;;;;;;4944232;28;20140;-76
2021/12/05 10:37:55;;;;;;;0.00;0.00;;;4.10;66.10;;;;;;4952401;29;20027;-77
2021/12/05 10:40:35;;;;;;;0.00;0.00;;;4.20;66.20;;;;;;4955406;28;20062;-76
2021/12/05 10:43:03;;;;;;;0.00;0.00;;;4.40;66.20;;;;;;4954025;29;20031;-79
2021/12/05 10:45:38;;;;;;;0.00;0.00;;;4.60;66.00;;;;;;4951220;29;20030;-75
2021/12/05 10:48:29;;;;;;;0.30;0.30;;;4.80;65.70;;;;;;4954839;28;20034;-76
2021/12/05 10:50:58;;;;;;;1.70;1.70;;;5.10;65.40;;;;;;4952410;29;20082;-77
2021/12/05 10:53:51;;;;;;;0.70;0.70;;;5.30;64.10;;;;;;4953204;29;20031;-76
2021/12/05 10:56:19;;;;;;;1.00;1.00;;;5.20;61.50;;;;;;4953591;29;20078;-78
2021/12/05 10:58:57;;;;;;;0.77;0.77;;;5.10;61.70;;;;;;4954534;29;20019;-76
2021/12/05 11:01:47;;;;;;;0.55;0.55;;;5.10;62.10;;;;;;4952803;29;20086;-76
2021/12/05 11:04:20;;;;;;;0.20;0.20;;;5.00;62.20;;;;;;4949622;29;20030;-76
2021/12/05 11:06:58;;;;;;;0.15;0.15;;;4.90;62.10;;;;;;4954250;28;20015;-77
2021/12/05 11:09:30;;;;;;;0.00;0.00;;;4.80;62.20;;;;;;4953131;29;20027;-78
2021/12/05 11:12:04;;;;;;;0.20;0.20;;;4.70;62.40;;;;;;4954167;28;20027;-77
2021/12/05 11:14:48;;;;;;;0.00;0.00;;;4.60;62.60;;;;;;4952010;29;20111;-76
2021/12/05 11:17:28;;;;;;;0.00;0.00;;;4.60;61.80;;;;;;4952312;29;20074;-77
2021/12/05 11:20:05;;;;;;;0.00;0.00;;;4.50;61.90;;;;;;4952350;29;20059;-76
2021/12/05 11:22:38;;;;;;;0.00;0.00;;;4.40;62.00;;;;;;4951062;29;20069;-78
2021/12/05 11:25:16;;;;;;;0.00;0.00;;;4.30;62.30;;;;;;4952944;29;20055;-77
2021/12/05 11:27:53;;;;;;;0.00;0.00;;;4.20;62.40;;;;;;4953251;29;20504;-78
2021/12/05 11:30:30;;;;;;;0.00;0.00;;;4.10;62.60;;;;;;4953075;29;20026;-76
2021/12/05 11:33:25;;;;;;;0.00;0.00;;;3.90;62.30;;;;;;4951776;29;20031;-78
2021/12/05 11:35:59;;;;;;;0.00;0.00;;;3.80;62.80;;;;;;4953732;29;20039;-76
2021/12/05 11:38:30;;;;;;;0.00;0.00;;;3.90;63.20;;;;;;4953582;29;20023;-77
2021/12/05 11:41:10;;;;;;;0.00;0.00;;;4.00;63.30;;;;;;4951918;29;20034;-78
2021/12/05 11:43:39;;;;;;;0.00;0.00;;;4.00;63.10;;;;;;4955430;28;20061;-78
2021/12/05 11:46:42;;;;;;;0.00;0.00;;;4.10;62.70;;;;;;4954236;28;20027;-77
2021/12/05 11:49:25;;;;;;;0.00;0.00;;;3.90;62.60;;;;;;4950858;29;20448;-77
2021/12/05 11:52:02;;;;;;;0.00;0.00;;;3.80;62.60;;;;;;4952864;29;20035;-78
2021/12/05 11:54:37;;;;;;;0.00;0.00;;;3.70;62.50;;;;;;4954715;28;20098;-77
2021/12/05 11:57:24;;;;;;;0.00;0.00;;;3.50;63.10;;;;;;4954115;29;20034;-78
2021/12/05 11:59:52;;;;;;;0.00;0.00;;;3.40;63.40;;;;;;4955147;28;20038;-76
2021/12/05 12:02:26;;;;;;;0.00;0.00;;;3.40;63.40;;;;;;4955052;28;20027;-77
2021/12/05 12:05:02;;;;;;;0.00;0.00;;;3.30;63.30;;;;;;4954955;28;20035;-76
2021/12/05 12:08:07;;;;;;;0.00;0.00;;;3.30;63.50;;;;;;4955056;28;20358;-76
2021/12/05 12:10:36;;;;;;;0.00;0.00;;;3.30;63.80;;;;;;4954495;28;20052;-78
2021/12/05 12:13:08;;;;;;;0.00;0.00;;;3.30;64.10;;;;;;4958115;29;20482;-76
2021/12/05 12:15:36;;;;;;;0.00;0.00;;;3.30;64.00;;;;;;4958174;28;20034;-76
2021/12/05 12:18:12;;;;;;;0.00;0.00;;;3.30;64.00;;;;;;4956967;29;20059;-76
2021/12/05 12:20:39;;;;;;;0.00;0.00;;;3.30;64.10;;;;;;4958121;28;20429;-77
2021/12/05 12:23:06;;;;;;;0.00;0.00;;;3.30;64.30;;;;;;4958049;28;20119;-77
2021/12/05 12:25:38;;;;;;;0.00;0.00;;;3.30;64.50;;;;;;4958303;29;20449;-76
2021/12/05 12:28:06;;;;;;;0.00;0.00;;;3.40;64.50;;;;;;4957072;29;20055;-77
2021/12/05 12:30:37;;;;;;;0.00;0.00;;;3.50;64.30;;;;;;4956652;29;20425;-76
2021/12/05 12:33:19;;;;;;;0.00;0.00;;;3.50;63.90;;;;;;4957020;29;20043;-77
2021/12/05 12:35:48;;;;;;;0.00;0.00;;;3.50;64.00;;;;;;4957085;29;20507;-78
2021/12/05 12:38:22;;;;;;;0.00;0.00;;;3.40;63.60;;;;;;4958015;29;20035;-76
2021/12/05 12:40:52;;;;;;;0.00;0.00;;;3.30;63.90;;;;;;4958292;29;20036;-77
2021/12/05 12:43:52;;;;;;;0.00;0.00;;;3.20;64.30;;;;;;4958106;29;20389;-78
2021/12/05 12:46:40;;;;;;;0.00;0.00;;;3.20;64.30;;;;;;4958076;29;20093;-76
2021/12/05 12:49:18;;;;;;;0.00;0.00;;;3.20;64.40;;;;;;4958130;29;20038;-77
2021/12/05 12:52:03;;;;;;;0.00;0.00;;;3.10;64.20;;;;;;4957736;28;20040;-76
2021/12/05 12:54:57;;;;;;;0.00;0.00;;;2.90;64.50;;;;;;4956688;29;20110;-76
2021/12/05 12:59:48;;;;;;;0.00;0.00;;;2.90;64.50;;;;;;5109441;27;1347515;-80
2021/12/05 13:10:48;;;;;;;0.00;0.00;;;2.60;65.10;;;;;;5128833;28;20026;-81
2021/12/05 13:13:20;;;;;;;0.10;0.10;;;2.70;65.40;;;;;;5131904;27;20031;-79
2021/12/05 13:15:53;;;;;;;0.30;0.30;;;2.70;65.40;;;;;;5131344;27;20439;-81
2021/12/05 13:18:35;;;;;;;0.10;0.10;;;2.60;65.30;;;;;;5079958;28;20041;-79
2021/12/05 13:21:03;;;;;;;0.00;0.00;;;2.70;65.80;;;;;;5056298;28;20109;-81
2021/12/05 13:23:36;;;;;;;0.00;0.00;;;2.70;65.50;;;;;;5057822;28;20021;-82
2021/12/05 13:26:23;;;;;;;0.00;0.00;;;2.70;65.50;;;;;;5060040;28;20030;-78
2021/12/05 13:29:07;;;;;;;0.00;0.00;;;2.70;65.40;;;;;;5062045;28;20476;-79
2021/12/05 13:31:38;;;;;;;0.00;0.00;;;2.60;65.40;;;;;;5066781;28;20134;-78
2021/12/05 13:34:19;;;;;;;0.00;0.00;;;2.50;66.10;;;;;;5048599;28;20029;-82
2021/12/05 13:36:51;;;;;;;0.00;0.00;;;2.60;66.40;;;;;;5050562;28;20041;-78
2021/12/05 13:39:47;;;;;;;0.00;0.00;;;2.60;66.10;;;;;;5033389;28;20029;-80
2021/12/05 13:42:46;;;;;;;0.00;0.00;;;2.50;65.90;;;;;;5048962;28;20029;-79
2021/12/05 13:45:37;;;;;;;0.00;0.00;;;2.50;66.00;;;;;;5056980;28;20017;-80
2021/12/05 13:48:04;;;;;;;0.00;0.00;;;2.40;66.20;;;;;;5070125;28;20040;-82
2021/12/05 13:51:04;;;;;;;0.00;0.00;;;2.50;66.50;;;;;;5059023;28;20167;-80
2021/12/05 13:53:46;;;;;;;0.00;0.00;;;2.50;66.40;;;;;;5049868;28;20029;-80
2021/12/05 13:56:15;;;;;;;0.00;0.00;;;2.40;66.20;;;;;;5052010;28;20030;-81
2021/12/05 13:58:48;;;;;;;0.00;0.00;;;2.40;66.50;;;;;;5050503;28;20136;-78
2021/12/05 14:01:40;;;;;;;0.00;0.00;;;2.50;66.60;;;;;;5049544;28;20018;-79
2021/12/05 14:04:21;;;;;;;0.00;0.00;;;2.50;66.60;;;;;;5049947;28;20086;-80
2021/12/05 14:06:53;;;;;;;0.00;0.00;;;2.50;66.60;;;;;;5032904;28;20026;-81
2021/12/05 14:09:36;;;;;;;0.00;0.00;;;2.50;66.90;;;;;;5025018;28;20034;-81
2021/12/05 14:12:02;;;;;;;0.03;0.00;;;2.70;67.20;;;;;;5016901;28;20056;-81
2021/12/05 14:14:37;;;;;;;0.00;0.00;;;2.80;67.10;;;;;;5016784;28;20037;-79
2021/12/05 14:17:04;;;;;;;;;;;2.90;66.70;;;;;;5017095;28;20037;-81
2021/12/05 14:19:34;;;;;;;0.00;0.00;;;2.90;66.50;;;;;;5015109;28;19913;-79
2021/12/05 14:22:03;;;;;;;0.00;0.00;;;2.90;66.10;;;;;;5016050;28;20034;-81
2021/12/05 14:24:32;;;;;;;0.00;0.00;;;2.80;66.30;;;;;;5016813;28;20025;-80
2021/12/05 14:27:02;;;;;;;0.00;0.00;;;2.70;66.50;;;;;;5027864;28;20053;-81
2021/12/05 14:29:30;;;;;;;0.00;0.00;;;2.70;66.80;;;;;;5035727;28;20030;-80
2021/12/05 14:32:06;;;;;;;0.00;0.00;;;2.70;67.10;;;;;;5051600;28;20036;-80
2021/12/05 14:34:33;;;;;;;0.00;0.00;;;2.70;67.20;;;;;;5018645;28;20043;-80
2021/12/05 14:37:01;;;;;;;0.00;0.00;;;2.80;66.90;;;;;;5029378;28;20466;-82
2021/12/05 14:39:32;;;;;;;0.00;0.00;;;2.80;66.80;;;;;;5030576;28;20508;-82
2021/12/05 14:42:05;;;;;;;0.00;0.00;;;2.70;67.30;;;;;;5023732;28;20029;-81
2021/12/05 14:44:32;;;;;;;0.00;0.00;;;2.70;67.20;;;;;;5020857;28;20116;-80
2021/12/05 14:47:04;;;;;;;0.00;0.00;;;2.60;67.30;;;;;;5019106;28;20095;-80
2021/12/05 14:49:34;;;;;;;0.00;0.00;;;2.60;67.40;;;;;;5022404;28;20045;-80
2021/12/05 14:52:02;;;;;;;0.00;0.00;;;2.70;67.40;;;;;;5026395;28;20120;-81
2021/12/05 14:54:34;;;;;;;0.00;0.00;;;2.70;67.30;;;;;;5025914;28;20033;-80
2021/12/05 14:57:05;;;;;;;0.00;0.00;;;2.70;67.00;;;;;;5024772;28;20556;-82
2021/12/05 14:59:32;;;;;;;0.00;0.00;;;2.60;67.20;;;;;;5029785;28;20048;-81
2021/12/05 15:01:59;;;;;;;0.00;0.00;;;2.60;67.40;;;;;;5024285;28;20025;-80
2021/12/05 15:04:29;;;;;;;0.00;0.00;;;2.60;67.40;;;;;;5034000;28;20025;-80
2021/12/05 15:06:55;;;;;;;0.00;0.00;;;2.70;67.70;;;;;;5035057;28;20492;-82
2021/12/05 15:09:26;;;;;;;0.00;0.00;;;2.70;67.70;;;;;;5022855;28;20034;-80
2021/12/05 15:11:57;;;;;;;0.00;0.00;;;2.80;67.50;;;;;;5023149;28;20028;-79
2021/12/05 15:14:25;;;;;;;0.00;0.00;;;2.70;67.50;;;;;;5024331;28;20038;-81
2021/12/05 15:17:17;;;;;;;0.00;0.00;;;2.70;67.50;;;;;;5032269;28;20021;-82
2021/12/05 15:19:47;;;;;;;0.00;0.00;;;2.70;67.80;;;;;;5021954;28;20061;-80
2021/12/05 15:22:14;;;;;;;0.00;0.00;;;2.80;67.60;;;;;;5004895;28;20058;-80
2021/12/05 15:24:52;;;;;;;0.00;0.00;;;2.80;67.50;;;;;;5015167;28;20053;-80
2021/12/05 15:27:32;;;;;;;0.00;0.00;;;2.70;67.60;;;;;;5022391;28;20097;-79
2021/12/05 15:30:26;;;;;;;0.00;0.00;;;2.80;67.90;;;;;;5022051;28;20030;-83
2021/12/05 15:33:03;;;;;;;0.00;0.00;;;2.80;67.80;;;;;;5033683;28;20022;-81
2021/12/05 15:35:31;;;;;;;0.00;0.00;;;2.80;67.60;;;;;;5034549;28;20026;-79
2021/12/05 15:38:03;;;;;;;0.00;0.00;;;2.90;67.50;;;;;;5034154;28;20037;-80
2021/12/05 15:40:31;;;;;;;0.00;0.00;;;2.90;67.40;;;;;;5034177;28;20512;-80
2021/12/05 15:43:04;;;;;;;0.00;0.00;;;2.90;67.50;;;;;;5034865;28;20025;-80
2021/12/05 15:45:30;;;;;;;0.00;0.00;;;2.90;67.50;;;;;;5033461;28;20118;-80
2021/12/05 15:47:57;;;;;;;0.00;0.00;;;2.90;67.40;;;;;;5034804;28;20056;-80
2021/12/05 15:50:29;;;;;;;0.00;0.00;;;2.90;67.40;;;;;;5034370;28;20175;-80
2021/12/05 15:53:05;;;;;;;0.00;0.00;;;2.90;67.40;;;;;;5034399;28;20032;-80
2021/12/05 15:55:32;;;;;;;0.00;0.00;;;2.80;67.50;;;;;;5033353;28;20036;-80
2021/12/05 15:58:08;;;;;;;0.00;0.00;;;2.90;67.80;;;;;;5022440;28;20046;-81
2021/12/05 16:01:05;;;;;;;0.00;0.00;;;2.90;68.20;;;;;;5024463;28;20120;-81
2021/12/05 16:03:50;;;;;;;0.00;0.00;;;3.00;68.20;;;;;;5026003;28;20022;-81
2021/12/05 16:06:18;;;;;;;0.00;0.00;;;3.00;67.80;;;;;;5023794;28;20017;-80
2021/12/05 16:08:47;;;;;;;0.00;0.00;;;3.10;67.90;;;;;;5024196;28;20072;-81
2021/12/05 16:11:16;;;;;;;0.00;0.00;;;3.10;67.80;;;;;;5023709;28;20036;-81
2021/12/05 16:13:44;;;;;;;0.00;0.00;;;3.20;67.60;;;;;;5022198;28;20021;-79
2021/12/05 16:16:21;;;;;;;0.00;0.00;;;3.20;67.60;;;;;;5016575;28;20107;-82
2021/12/05 16:22:09;;;;;;;0.00;0.00;;;3.40;67.60;;;;;;5051323;28;20044;-81
2021/12/05 16:24:36;;;;;;;0.00;0.00;;;3.40;67.40;;;;;;5052396;28;20457;-81
2021/12/05 16:27:05;;;;;;;0.00;0.00;;;3.50;67.30;;;;;;5052361;28;20083;-80
2021/12/05 16:29:32;;;;;;;0.00;0.00;;;3.50;67.20;;;;;;5050499;28;20106;-82
2021/12/05 16:31:59;;;;;;;0.00;0.00;;;3.50;67.00;;;;;;5051416;28;20025;-79
2021/12/05 16:34:32;;;;;;;0.00;0.00;;;3.40;67.00;;;;;;5051046;28;20090;-81
2021/12/05 16:37:06;;;;;;;0.00;0.00;;;3.40;67.30;;;;;;5052358;28;20029;-80
2021/12/05 16:39:35;;;;;;;0.00;0.00;;;3.40;67.40;;;;;;5050470;28;20099;-81
2021/12/05 16:42:04;;;;;;;0.00;0.00;;;3.40;67.30;;;;;;5053625;28;20040;-80
2021/12/05 16:44:34;;;;;;;1.65;0.00;;;3.40;67.40;;;;;;5053597;28;20036;-80
2021/12/05 16:47:03;;;;;;;0.00;0.00;;;3.40;67.50;;;;;;5053652;28;20018;-80
2021/12/05 16:49:33;;;;;;;0.00;0.00;;;3.40;67.40;;;;;;5053296;28;20043;-80
2021/12/05 16:52:04;;;;;;;0.00;0.00;;;3.40;67.70;;;;;;5052437;28;20120;-82
2021/12/05 16:54:54;;;;;;;0.00;0.00;;;3.40;67.70;;;;;;5053693;28;20044;-80
2021/12/05 16:57:24;;;;;;;0.00;0.00;;;3.50;67.70;;;;;;5053380;28;20028;-81
2021/12/05 16:59:56;;;;;;;0.00;0.00;;;3.50;67.30;;;;;;5053031;28;20059;-80
2021/12/05 17:02:33;;;;;;;0.00;0.00;;;3.50;67.30;;;;;;5035356;28;20028;-80
2021/12/05 17:05:17;;;;;;;0.00;0.00;;;3.40;67.50;;;;;;5053418;28;20025;-79
2021/12/05 17:07:48;;;;;;;0.00;0.00;;;3.40;67.80;;;;;;5054105;28;20084;-80
2021/12/05 17:10:25;;;;;;;0.00;0.00;;;3.50;67.70;;;;;;5053391;28;20115;-79
2021/12/05 17:13:22;;;;;;;0.00;0.00;;;3.40;67.60;;;;;;5051802;28;20132;-80
2021/12/05 17:15:53;;;;;;;0.00;0.00;;;3.40;67.80;;;;;;5052293;28;20111;-79
2021/12/05 17:18:32;;;;;;;0.00;0.00;;;3.60;67.90;;;;;;5034805;28;20034;-80
2021/12/05 17:21:09;;;;;;;0.00;0.00;;;3.60;67.50;;;;;;5033698;28;20100;-80
2021/12/05 17:23:52;;;;;;;0.00;0.00;;;3.60;67.50;;;;;;5033341;28;20022;-80
2021/12/05 17:26:20;;;;;;;0.00;0.00;;;3.50;67.60;;;;;;5043066;28;20033;-81
2021/12/05 17:28:50;;;;;;;0.00;0.00;;;3.50;67.50;;;;;;5052696;28;20033;-80
2021/12/05 17:31:23;;;;;;;0.00;0.00;;;3.50;67.60;;;;;;5052700;28;20021;-81
2021/12/05 17:33:55;;;;;;;0.00;0.00;;;3.50;67.80;;;;;;5051542;28;20017;-81
2021/12/05 17:36:40;;;;;;;0.00;0.00;;;3.60;67.90;;;;;;5052687;28;20033;-81
2021/12/05 17:39:18;;;;;;;0.00;0.00;;;3.60;67.80;;;;;;5049402;28;20118;-82
2021/12/05 17:41:48;;;;;;;0.00;0.00;;;3.70;67.80;;;;;;5051754;28;20057;-81
2021/12/05 17:44:17;;;;;;;0.00;0.00;;;3.70;67.50;;;;;;5050536;28;20017;-79
2021/12/05 17:46:45;;;;;;;0.00;0.00;;;3.70;67.60;;;;;;5055533;28;20021;-81
2021/12/05 17:49:13;;;;;;;0.00;0.00;;;3.70;67.40;;;;;;5055477;28;20113;-79
2021/12/05 17:51:41;;;;;;;0.00;0.00;;;3.70;67.40;;;;;;5054448;28;20028;-79
2021/12/05 17:54:17;;;;;;;0.00;0.00;;;3.60;67.70;;;;;;5054511;28;20021;-81
2021/12/05 17:56:49;;;;;;;0.00;0.00;;;3.60;68.00;;;;;;5054666;28;20502;-79
2021/12/05 17:59:29;;;;;;;0.00;0.00;;;3.70;68.20;;;;;;5055128;28;20143;-81
2021/12/05 18:04:49;;;;;;;0.00;0.00;;;3.80;67.80;;;;;;5048665;28;20091;-81
2021/12/05 18:07:22;;;;;;;0.00;0.00;;;3.80;68.00;;;;;;5052164;28;20120;-80
2021/12/05 18:09:50;;;;;;;0.00;0.00;;;3.80;67.90;;;;;;5046143;28;20042;-80
2021/12/05 18:12:22;;;;;;;0.00;0.00;;;3.80;67.70;;;;;;5054196;28;20453;-81
2021/12/05 18:14:57;;;;;;;0.00;0.00;;;3.80;67.80;;;;;;5053467;28;20104;-79
2021/12/05 18:17:27;;;;;;;0.00;0.00;;;3.80;67.80;;;;;;5053475;28;20028;-81
2021/12/05 18:19:54;;;;;;;0.00;0.00;;;3.80;67.80;;;;;;5055634;28;20442;-79
2021/12/05 18:22:21;;;;;;;0.00;0.00;;;3.80;67.90;;;;;;5055576;28;20017;-79
2021/12/05 18:24:47;;;;;;;0.00;0.00;;;3.80;67.90;;;;;;5055385;28;20017;-81
2021/12/05 18:27:16;;;;;;;0.00;0.00;;;3.80;68.30;;;;;;5054970;28;20087;-80
2021/12/05 18:29:42;;;;;;;0.00;0.00;;;3.90;68.30;;;;;;5054435;28;20025;-81
2021/12/05 18:32:16;;;;;;;0.00;0.00;;;3.90;68.30;;;;;;5056251;28;20021;-80
2021/12/05 18:34:42;;;;;;;0.00;0.00;;;3.90;68.00;;;;;;5056157;28;20114;-82
2021/12/05 18:37:10;;;;;;;0.00;0.00;;;3.80;68.10;;;;;;5055336;28;20036;-79
2021/12/05 18:39:56;;;;;;;0.00;0.00;;;3.80;68.10;;;;;;5055835;28;20037;-80
2021/12/05 18:42:30;;;;;;;0.00;0.00;;;3.80;68.20;;;;;;5054670;28;20031;-79
2021/12/05 18:45:00;;;;;;;0.00;0.00;;;3.80;68.60;;;;;;5055024;28;20443;-80
2021/12/05 18:47:32;;;;;;;0.00;0.00;;;3.80;68.70;;;;;;5055207;28;20021;-80
2021/12/05 18:50:04;;;;;;;0.00;0.00;;;3.80;68.90;;;;;;5053543;28;20037;-79
2021/12/05 18:52:34;;;;;;;0.00;0.00;;;3.90;68.70;;;;;;5055485;28;20024;-82
2021/12/05 18:55:01;;;;;;;0.00;0.00;;;3.90;68.70;;;;;;5054539;28;20429;-79
2021/12/05 18:57:31;;;;;;;0.00;0.00;;;3.90;68.60;;;;;;5045683;28;20022;-82
2021/12/05 19:00:01;;;;;;;0.00;0.00;;;3.90;68.60;;;;;;5051668;28;20487;-80
2021/12/05 19:05:20;;;;;;;0.00;0.00;;;3.90;68.80;;;;;;5055449;28;20487;-79
2021/12/05 19:08:15;;;;;;;0.00;0.00;;;3.80;69.30;;;;;;5055274;28;20047;-81
2021/12/05 19:13:23;;;;;;;0.00;0.00;;;3.80;69.60;;;;;;5051710;28;20035;-78
2021/12/05 19:15:49;;;;;;;0.00;0.00;;;3.90;69.50;;;;;;5052824;28;20029;-81
2021/12/05 19:18:20;;;;;;;0.00;0.00;;;4.00;69.40;;;;;;5053843;28;20079;-81
2021/12/05 19:20:47;;;;;;;0.00;0.00;;;4.00;69.30;;;;;;5054251;28;20041;-79
2021/12/05 19:23:14;;;;;;;0.00;0.00;;;4.00;69.30;;;;;;5052653;28;20112;-79
2021/12/05 19:25:42;;;;;;;0.00;0.00;;;4.00;69.10;;;;;;5054021;28;20049;-80
2021/12/05 19:28:10;;;;;;;0.00;0.00;;;4.00;69.30;;;;;;5053074;28;20044;-80
2021/12/05 19:30:43;;;;;;;0.00;0.00;;;4.00;69.20;;;;;;5054832;28;20029;-79